Impacts METAR Board
IDs:

KATL - Atlanta/Hartsfield I, GA, US

Updated at: 1900 UTC 02 Oct 2022
Potential Impact None Slight Moderate High
Time 02/07Z 02/08Z 02/09Z 02/10Z 02/11Z 02/12Z 02/13Z 02/14Z 02/15Z 02/16Z 02/17Z 02/18Z 02/19Z
Temp58 57 56 55 55 55 58 63 66 69 70 74 75
Dewpt52 51 50 50 49 49 49 49 49 50 51 52 53
Altim29.96 29.95 29.94 29.95 29.96 29.97 29.98 29.99 30.00 30.00 30.00 29.99 29.98
VIS10 10 10 10 10 10 10 10 10 10 10 10 10
CIG-- -- -- -- -- -- -- -- -- -- -- -- --
CoverCLRCLRCLRCLRCLRFEWFEWFEWFEWFEWFEWFEWFEW
FltCatVFRVFRVFRVFRVFRVFRVFRVFRVFRVFRVFRVFRVFR
WX--------------------------
WDir310320320310310330320350330320330330300
WSpd9 10 9 8 8 7 9 12 12 10 12 12 9
WGst-- -- -- -- -- -- -- -- -- 20 17 -- 19
Raw hourly METARs
KATL 020652Z 31009KT 10SM CLR 14/11 A2996 RMK AO2 SLP138 T01440111 $
KATL 020752Z 32010KT 10SM CLR 14/11 A2995 RMK AO2 SLP135 T01390106 $
KATL 020852Z 32009KT 10SM CLR 13/10 A2994 RMK AO2 SLP134 T01330100 58004 $
KATL 020952Z 31008KT 10SM CLR 13/10 A2995 RMK AO2 SLP135 T01280100 $
KATL 021052Z 31008KT 10SM CLR 13/09 A2996 RMK AO2 SLP141 T01280094 $
KATL 021152Z 33007KT 10SM FEW060 FEW200 13/09 A2997 RMK AO2 SLP143 T01280094 10156 20128 53007 $
KATL 021252Z 32009KT 10SM FEW060 FEW200 14/09 A2998 RMK AO2 SLP148 T01440094 $
KATL 021352Z 35012KT 10SM FEW200 17/09 A2999 RMK AO2 SLP149 T01720094 $
KATL 021452Z 33012KT 10SM FEW035 FEW200 19/09 A3000 RMK AO2 SLP154 T01890094 51011 $
KATL 021552Z 32010G20KT 300V020 10SM FEW040 FEW200 21/10 A3000 RMK AO2 SLP155 T02060100 $
KATL 021652Z 33012G17KT 10SM FEW044 21/11 A3000 RMK AO2 SLP153 T02110106 $
KATL 021752Z 33012KT 10SM FEW046 23/11 A2999 RMK AO2 SLP150 T02330111 10233 20128 58003 $
KATL 021852Z 30009G19KT 10SM FEW044 24/12 A2998 RMK AO2 SLP145 T02390117 $



Page loaded:  19:55 UTC  |   12:55 PM Pacific  |   01:55 PM Mountain  |   02:55 PM Central  |   03:55 PM Eastern

 

ADVISORIES

FORECASTS

FORECASTS

OBSERVATIONS

USER TOOLS

ABOUT US